Time;durP1;ratioP1;P1;durP2;ratioP2;P2;SDS_P1;SDS_P2;PMS_P1;PMS_P2;Temp;Humidity;BMP_temperature;BMP_pressure;BME280_temperature;BME280_humidity;BME280_pressure;Samples;Min_cycle;Max_cycle;Signal;HPM_P1;HPM_P2
2022/10/21 00:02:26;;;;;;;22.45;17.23;;;;;;;7.24;nan;95917.47;5072582;28;20237;-73
2022/10/21 00:04:53;;;;;;;25.00;17.77;;;;;;;7.25;nan;95927.56;5073717;28;20255;-73
2022/10/21 00:07:20;;;;;;;23.10;17.55;;;;;;;7.77;nan;95922.09;5072490;28;20217;-72
2022/10/21 00:09:46;;;;;;;20.92;16.42;;;;;;;8.13;nan;95918.38;5073259;28;20213;-73
2022/10/21 00:12:13;;;;;;;27.80;16.63;;;;;;;8.08;nan;95923.50;5072611;28;20263;-73
2022/10/21 00:14:40;;;;;;;22.33;17.45;;;;;;;8.26;nan;95917.38;5073185;28;20271;-73
2022/10/21 00:17:08;;;;;;;19.52;15.57;;;;;;;8.36;nan;95918.16;5072779;28;20206;-73
2022/10/21 00:19:35;;;;;;;20.05;15.30;;;;;;;8.24;nan;95913.19;5073994;28;20202;-73
2022/10/21 00:22:01;;;;;;;18.40;12.65;;;;;;;8.26;nan;95911.47;5074226;28;20208;-72
2022/10/21 00:24:28;;;;;;;18.60;14.60;;;;;;;8.12;nan;95909.97;5077269;28;20842;-74
2022/10/21 00:26:55;;;;;;;20.58;15.32;;;;;;;8.31;nan;95907.22;5076271;28;20225;-73
2022/10/21 00:29:22;;;;;;;18.52;13.77;;;;;;;8.34;nan;95912.28;5074905;28;20238;-73
2022/10/21 00:31:48;;;;;;;18.88;13.95;;;;;;;8.32;nan;95906.34;5074315;28;20206;-74
2022/10/21 00:34:16;;;;;;;16.83;13.10;;;;;;;8.37;nan;95912.25;5075023;28;21258;-72
2022/10/21 00:36:43;;;;;;;15.15;11.95;;;;;;;8.39;nan;95913.91;5075056;28;20219;-73
2022/10/21 00:39:10;;;;;;;14.82;12.23;;;;;;;8.23;nan;95911.50;5073597;28;20197;-72
2022/10/21 00:41:37;;;;;;;13.63;12.20;;;;;;;8.22;nan;95909.84;5073613;28;20869;-73
2022/10/21 00:44:06;;;;;;;17.80;11.70;;;;;;;8.22;nan;95904.78;5074382;28;20274;-72
2022/10/21 00:46:38;;;;;;;16.00;11.60;;;;;;;8.31;nan;95909.75;5072936;28;20237;-72
2022/10/21 00:49:12;;;;;;;15.50;11.25;;;;;;;8.45;nan;95912.97;5073788;28;20201;-71
2022/10/21 00:51:41;;;;;;;17.83;11.45;;;;;;;8.42;nan;95907.94;5074532;28;20738;-71
2022/10/21 00:54:08;;;;;;;18.08;12.45;;;;;;;8.44;nan;95904.53;5073602;28;20206;-72
2022/10/21 00:56:36;;;;;;;19.38;13.38;;;;;;;8.26;nan;95903.88;5072531;28;20570;-71
2022/10/21 00:59:05;;;;;;;21.95;14.63;;;;;;;8.30;nan;95906.38;5071126;28;20205;-72
2022/10/21 01:01:31;;;;;;;17.95;13.90;;;;;;;8.18;nan;95902.28;5072636;28;20233;-71
2022/10/21 01:04:00;;;;;;;16.30;12.27;;;;;;;8.00;nan;95905.00;5073927;28;20267;-71
2022/10/21 01:06:27;;;;;;;19.98;12.55;;;;;;;7.87;nan;95900.09;5073080;28;20221;-71
2022/10/21 01:08:57;;;;;;;17.40;12.52;;;;;;;7.71;nan;95897.69;5073883;28;21069;-71
2022/10/21 01:11:25;;;;;;;14.00;10.90;;;;;;;7.40;nan;95901.34;5073390;28;20261;-71
2022/10/21 01:14:10;;;;;;;13.70;11.63;;;;;;;7.48;nan;95894.53;5073863;28;20209;-72
2022/10/21 01:16:45;;;;;;;20.40;11.13;;;;;;;7.39;nan;95910.63;5075050;28;20829;-70
2022/10/21 01:19:34;;;;;;;16.52;11.48;;;;;;;7.09;nan;95905.78;5073558;28;20205;-71
2022/10/21 01:22:08;;;;;;;16.05;11.50;;;;;;;7.30;nan;95907.31;5073204;28;20266;-71
2022/10/21 01:24:52;;;;;;;17.50;11.75;;;;;;;7.32;nan;95909.00;5073210;28;20674;-71
2022/10/21 01:27:29;;;;;;;14.27;11.90;;;;;;;6.79;nan;95910.16;5071656;28;20283;-71
2022/10/21 01:30:11;;;;;;;16.85;12.98;;;;;;;6.58;nan;95907.75;5072433;28;20685;-70
2022/10/21 01:33:16;;;;;;;19.20;11.90;;;;;;;6.55;nan;95912.81;5071259;28;20329;-71
2022/10/21 01:35:49;;;;;;;17.60;12.30;;;;;;;6.86;nan;95915.19;5071787;28;20205;-70
2022/10/21 01:38:23;;;;;;;16.17;10.90;;;;;;;7.00;nan;95908.34;5073423;28;20662;-70
2022/10/21 01:40:56;;;;;;;13.10;11.18;;;;;;;7.13;nan;95915.03;5072522;28;20660;-70
2022/10/21 01:43:33;;;;;;;15.07;11.85;;;;;;;7.23;nan;95919.16;5072727;28;20253;-73
2022/10/21 01:46:02;;;;;;;17.92;11.40;;;;;;;7.22;nan;95912.41;5073866;28;20629;-72
2022/10/21 01:48:33;;;;;;;13.13;11.20;;;;;;;7.13;nan;95918.41;5073042;28;20286;-72
2022/10/21 01:51:04;;;;;;;19.55;12.05;;;;;;;6.65;nan;95921.19;5072253;28;20209;-72
2022/10/21 01:53:42;;;;;;;14.73;11.18;;;;;;;6.62;nan;95919.53;5072984;28;20201;-72
2022/10/21 01:56:11;;;;;;;13.00;10.93;;;;;;;6.32;nan;95922.16;5072533;28;20221;-72
2022/10/21 01:58:41;;;;;;;14.68;10.52;;;;;;;6.08;nan;95926.44;5073375;28;20197;-71
2022/10/21 02:01:11;;;;;;;13.80;10.32;;;;;;;6.12;nan;95929.81;5070739;28;20209;-72
2022/10/21 02:03:42;;;;;;;10.23;9.30;;;;;;;6.19;nan;95923.06;5045094;28;20681;-72
2022/10/21 02:06:12;;;;;;;16.83;11.00;;;;;;;6.19;nan;95923.06;5048082;28;20202;-72
2022/10/21 02:08:40;;;;;;;11.43;9.52;;;;;;;6.09;nan;95923.06;5048234;28;20232;-72
2022/10/21 02:11:10;;;;;;;9.48;8.13;;;;;;;6.58;nan;95922.06;5047454;28;20303;-71
2022/10/21 02:13:45;;;;;;;14.48;9.48;;;;;;;6.63;nan;95921.22;5046958;28;20198;-71
2022/10/21 02:16:17;;;;;;;9.27;8.38;;;;;;;6.70;nan;95922.00;5047528;28;20249;-72
2022/10/21 02:18:44;;;;;;;10.00;8.40;;;;;;;7.06;nan;95926.84;5047997;28;20194;-72
2022/10/21 02:21:17;;;;;;;12.13;8.75;;;;;;;7.18;nan;95927.66;5046688;28;20312;-72
2022/10/21 02:23:52;;;;;;;9.55;8.55;;;;;;;7.13;nan;95937.78;5047304;28;20293;-71
2022/10/21 02:26:19;;;;;;;10.52;8.75;;;;;;;7.13;nan;95932.72;5049656;28;20582;-72
2022/10/21 02:28:46;;;;;;;11.73;9.48;;;;;;;6.89;nan;95935.41;5050893;28;20222;-72
2022/10/21 02:31:29;;;;;;;13.48;10.23;;;;;;;6.83;nan;95934.56;5046869;28;20202;-72
2022/10/21 02:34:04;;;;;;;12.30;9.75;;;;;;;7.00;nan;95929.41;5046532;28;20659;-72
2022/10/21 02:36:42;;;;;;;12.63;9.05;;;;;;;7.04;nan;95928.56;5046600;28;20224;-71
2022/10/21 02:39:15;;;;;;;9.82;8.73;;;;;;;6.53;nan;95933.88;5047768;28;20782;-71
2022/10/21 02:41:44;;;;;;;11.98;10.35;;;;;;;6.27;nan;95932.28;5044877;28;20858;-71
2022/10/21 02:44:11;;;;;;;15.02;10.85;;;;;;;6.27;nan;95937.31;5047325;28;20206;-71
2022/10/21 02:46:40;;;;;;;12.68;9.93;;;;;;;6.62;nan;95934.69;5046301;28;20304;-71
2022/10/21 02:49:07;;;;;;;15.27;12.15;;;;;;;6.61;nan;95939.75;5046977;28;20209;-71
2022/10/21 02:51:36;;;;;;;13.13;11.50;;;;;;;6.60;nan;95936.38;5047270;28;20797;-73
2022/10/21 02:54:03;;;;;;;17.60;10.77;;;;;;;6.39;nan;95947.41;5048694;28;20266;-70
2022/10/21 02:56:30;;;;;;;19.92;13.00;;;;;;;6.27;nan;95946.56;5047284;28;20206;-70
2022/10/21 02:58:56;;;;;;;16.52;11.27;;;;;;;6.13;nan;95942.41;5046970;28;20206;-71
2022/10/21 03:01:23;;;;;;;16.08;11.23;;;;;;;5.92;nan;95944.16;5049988;28;20210;-71
2022/10/21 03:03:50;;;;;;;15.25;11.68;;;;;;;5.91;nan;95943.31;5072641;28;20755;-71
2022/10/21 03:06:16;;;;;;;14.35;10.63;;;;;;;5.59;nan;95942.44;5071645;28;20197;-72
2022/10/21 03:08:44;;;;;;;13.65;10.95;;;;;;;5.90;nan;95949.19;5072959;28;20221;-72
2022/10/21 03:11:11;;;;;;;18.25;11.18;;;;;;;6.29;nan;95943.22;5072691;28;20683;-71
2022/10/21 03:13:38;;;;;;;14.02;10.80;;;;;;;6.49;nan;95946.50;5071361;28;20680;-72
2022/10/21 03:16:05;;;;;;;20.38;11.35;;;;;;;6.50;nan;95944.81;5073433;28;20202;-72
2022/10/21 03:18:32;;;;;;;16.10;10.05;;;;;;;5.99;nan;95946.63;5072503;28;20645;-72
2022/10/21 03:20:58;;;;;;;12.43;10.23;;;;;;;5.60;nan;95949.19;5072904;28;20209;-71
2022/10/21 03:23:25;;;;;;;12.55;9.50;;;;;;;5.43;nan;95949.19;5072280;28;20196;-72
2022/10/21 03:25:53;;;;;;;11.88;9.45;;;;;;;5.35;nan;95946.66;5074236;28;20201;-74
2022/10/21 03:28:20;;;;;;;13.27;10.30;;;;;;;5.22;nan;95960.06;5073029;28;20338;-73
2022/10/21 03:30:47;;;;;;;11.43;9.95;;;;;;;5.07;nan;95955.00;5072231;28;20233;-72
2022/10/21 03:33:13;;;;;;;11.50;9.65;;;;;;;5.05;nan;95959.19;5071310;28;20563;-73
2022/10/21 03:35:40;;;;;;;12.02;10.15;;;;;;;4.97;nan;95958.34;5072411;28;20691;-73
2022/10/21 03:38:07;;;;;;;14.18;9.77;;;;;;;5.02;nan;95952.47;5072387;28;20204;-73
2022/10/21 03:40:34;;;;;;;13.73;10.18;;;;;;;4.91;nan;95953.31;5072322;28;20193;-71
2022/10/21 03:43:02;;;;;;;10.85;9.75;;;;;;;4.85;nan;95958.31;5071074;28;20268;-71
2022/10/21 03:45:28;;;;;;;12.30;9.80;;;;;;;4.97;nan;95955.81;5072930;28;20633;-71
2022/10/21 03:47:55;;;;;;;14.63;10.18;;;;;;;5.46;nan;95960.09;5072816;28;20221;-72
2022/10/21 03:50:22;;;;;;;13.23;10.30;;;;;;;5.97;nan;95958.41;5070677;28;20210;-72
2022/10/21 03:52:49;;;;;;;14.45;9.63;;;;;;;5.81;nan;95964.28;5071899;28;20258;-72
2022/10/21 03:55:19;;;;;;;10.02;9.02;;;;;;;6.05;nan;95961.78;5072438;28;21409;-72
2022/10/21 03:57:46;;;;;;;15.00;10.00;;;;;;;6.08;nan;95959.25;5073710;28;21020;-72
2022/10/21 04:00:15;;;;;;;12.60;9.65;;;;;;;6.19;nan;95968.50;5075556;28;20235;-73
2022/10/21 04:02:42;;;;;;;12.15;9.85;;;;;;;6.16;nan;95961.75;5076744;28;20722;-72
2022/10/21 04:05:10;;;;;;;36.72;13.75;;;;;;;5.94;nan;95965.97;5076053;28;20210;-72
2022/10/21 04:07:36;;;;;;;59.45;32.45;;;;;;;6.10;nan;95957.56;5076086;28;20225;-72
2022/10/21 04:10:04;;;;;;;19.98;13.82;;;;;;;6.13;nan;95962.59;5078489;28;20209;-72
2022/10/21 04:12:30;;;;;;;15.23;11.45;;;;;;;6.11;nan;95964.28;5076096;28;20262;-72
2022/10/21 04:14:57;;;;;;;15.65;11.05;;;;;;;6.38;nan;95958.34;5075633;28;20583;-72
2022/10/21 04:17:25;;;;;;;13.82;11.02;;;;;;;6.30;nan;95956.66;5073823;28;20607;-73
2022/10/21 04:19:52;;;;;;;16.98;11.30;;;;;;;6.30;nan;95957.50;5075188;28;20201;-72
2022/10/21 04:22:19;;;;;;;14.50;11.25;;;;;;;6.48;nan;95961.66;5076295;28;20197;-72
2022/10/21 04:24:45;;;;;;;13.70;11.10;;;;;;;6.52;nan;95957.44;5075790;28;20876;-72
2022/10/21 04:27:12;;;;;;;158.45;79.90;;;;;;;6.46;nan;95958.28;5076609;28;20696;-71
2022/10/21 04:29:39;;;;;;;44.67;26.45;;;;;;;6.33;nan;95965.06;5074499;28;21052;-72
2022/10/21 04:32:06;;;;;;;20.60;14.23;;;;;;;6.30;nan;95961.72;5075832;28;20209;-72
2022/10/21 04:34:34;;;;;;;13.63;10.77;;;;;;;6.46;nan;95958.28;5075764;28;20205;-72
2022/10/21 04:37:01;;;;;;;18.30;11.45;;;;;;;6.44;nan;95957.47;5075349;28;20699;-72
2022/10/21 04:39:27;;;;;;;12.45;11.15;;;;;;;6.45;nan;95956.59;5077036;28;20292;-73
2022/10/21 04:41:55;;;;;;;17.15;11.23;;;;;;;6.46;nan;95948.19;5075009;28;20210;-72
2022/10/21 04:44:22;;;;;;;16.88;12.05;;;;;;;6.11;nan;95959.25;5076101;28;20223;-73
2022/10/21 04:46:49;;;;;;;28.48;14.82;;;;;;;5.82;nan;95955.88;5077485;28;20266;-72
2022/10/21 04:49:15;;;;;;;70.18;37.35;;;;;;;5.54;nan;95966.81;5076191;28;20229;-72
2022/10/21 04:51:44;;;;;;;60.13;31.63;;;;;;;5.32;nan;95965.97;5074426;28;20259;-71
2022/10/21 04:54:12;;;;;;;31.45;17.83;;;;;;;5.19;nan;95974.38;5074655;28;20290;-72
2022/10/21 04:56:39;;;;;;;23.73;14.88;;;;;;;5.17;nan;95965.97;5077315;28;20210;-73
2022/10/21 04:59:06;;;;;;;24.52;13.65;;;;;;;5.28;nan;95966.78;5075136;28;20245;-70
2022/10/21 05:01:32;;;;;;;16.77;12.52;;;;;;;5.19;nan;95970.16;5075768;28;20241;-71
2022/10/21 05:03:59;;;;;;;25.40;14.68;;;;;;;5.10;nan;95965.09;5074521;28;20210;-71
2022/10/21 05:06:26;;;;;;;28.85;16.95;;;;;;;4.98;nan;95970.09;5073210;28;20298;-70
2022/10/21 05:08:54;;;;;;;28.33;17.55;;;;;;;4.99;nan;95967.56;5074388;28;20256;-71
2022/10/21 05:11:21;;;;;;;30.02;18.67;;;;;;;5.02;nan;95971.78;5073815;28;20751;-70
2022/10/21 05:13:47;;;;;;;34.78;18.70;;;;;;;5.08;nan;95971.81;5073663;28;20206;-72
2022/10/21 05:16:14;;;;;;;36.28;19.67;;;;;;;5.10;nan;95970.13;5072632;28;20637;-71
2022/10/21 05:18:41;;;;;;;47.05;20.05;;;;;;;5.19;nan;95970.16;5072203;28;20209;-71
2022/10/21 05:21:08;;;;;;;38.80;19.98;;;;;;;5.46;nan;95975.22;5072477;28;20220;-71
2022/10/21 05:23:34;;;;;;;28.08;19.95;;;;;;;5.86;nan;95976.91;5073659;28;20214;-70
2022/10/21 05:26:03;;;;;;;26.17;20.38;;;;;;;5.90;nan;95976.94;5073967;28;20686;-71
2022/10/21 05:28:29;;;;;;;27.83;18.98;;;;;;;6.10;nan;95972.72;5073610;28;20666;-71
2022/10/21 05:30:56;;;;;;;28.27;18.73;;;;;;;5.99;nan;95966.81;5073997;28;20209;-72
2022/10/21 05:33:23;;;;;;;31.50;21.02;;;;;;;5.99;nan;95969.34;5074576;28;20207;-72
2022/10/21 05:35:57;;;;;;;39.75;24.05;;;;;;;6.14;nan;95963.44;5073903;28;20212;-74
2022/10/21 05:38:23;;;;;;;54.45;26.00;;;;;;;6.23;nan;95970.97;5073570;28;20250;-72
2022/10/21 05:40:50;;;;;;;43.25;27.77;;;;;;;6.47;nan;95981.00;5073151;28;20201;-72
2022/10/21 05:43:18;;;;;;;45.70;26.65;;;;;;;6.69;nan;95979.25;5074584;28;20206;-71
2022/10/21 05:45:45;;;;;;;43.05;25.42;;;;;;;7.22;nan;95972.25;5074627;28;20202;-72
2022/10/21 05:48:12;;;;;;;39.58;24.02;;;;;;;7.50;nan;95984.72;5073954;28;20290;-72
2022/10/21 05:50:39;;;;;;;42.00;23.27;;;;;;;7.92;nan;95976.81;5074144;28;20233;-71
2022/10/21 05:53:05;;;;;;;35.67;21.27;;;;;;;8.12;nan;95980.00;5074603;28;20206;-71
2022/10/21 05:55:32;;;;;;;36.00;21.25;;;;;;;8.57;nan;95977.88;5073597;28;20205;-72
2022/10/21 05:57:59;;;;;;;57.40;30.83;;;;;;;9.20;nan;95993.97;5072993;28;20266;-72
2022/10/21 06:00:27;;;;;;;45.40;26.92;;;;;;;9.14;nan;95997.47;5074333;28;20895;-72
2022/10/21 06:02:54;;;;;;;57.58;28.90;;;;;;;9.27;nan;95998.13;5073953;28;20224;-72
2022/10/21 06:05:21;;;;;;;47.05;26.13;;;;;;;9.67;nan;95995.00;5074805;28;20205;-72
2022/10/21 06:07:48;;;;;;;36.40;21.48;;;;;;;11.32;nan;95998.78;5073283;28;20229;-73
2022/10/21 06:10:15;;;;;;;38.58;20.13;;;;;;;12.77;nan;96001.19;5073100;28;20226;-73
2022/10/21 06:12:42;;;;;;;21.58;15.65;;;;;;;13.30;nan;96006.56;5074404;28;20679;-71
2022/10/21 06:15:10;;;;;;;19.17;14.35;;;;;;;13.24;nan;96011.81;5074408;28;20205;-73
2022/10/21 06:17:38;;;;;;;20.65;14.68;;;;;;;13.23;nan;96011.00;5073002;28;20259;-71
2022/10/21 06:20:05;;;;;;;18.00;12.77;;;;;;;12.42;nan;96012.31;5073725;28;20205;-71
2022/10/21 06:22:32;;;;;;;16.15;13.70;;;;;;;11.79;nan;96007.09;5073791;28;20255;-74
2022/10/21 06:24:59;;;;;;;19.67;14.05;;;;;;;11.24;nan;96013.38;5073749;28;20210;-73
2022/10/21 06:27:26;;;;;;;17.15;13.45;;;;;;;10.79;nan;96015.97;5074997;28;20266;-73
2022/10/21 06:29:52;;;;;;;14.93;13.27;;;;;;;10.62;nan;96018.00;5073212;28;20700;-73
2022/10/21 06:32:19;;;;;;;18.45;14.27;;;;;;;10.69;nan;96019.53;5075511;28;20217;-73
2022/10/21 06:34:47;;;;;;;18.98;13.23;;;;;;;12.03;nan;96024.34;5075143;28;20692;-73
2022/10/21 06:37:15;;;;;;;20.95;13.10;;;;;;;13.73;nan;96025.69;5075695;28;20415;-72
2022/10/21 06:39:41;;;;;;;21.65;12.23;;;;;;;14.39;nan;96014.19;5073026;28;20203;-73
2022/10/21 06:42:08;;;;;;;24.40;14.48;;;;;;;13.81;nan;96022.03;5074663;28;20205;-73
2022/10/21 06:44:35;;;;;;;26.27;13.95;;;;;;;13.09;nan;96025.00;5074428;28;20321;-73
2022/10/21 06:47:01;;;;;;;18.10;14.23;;;;;;;12.53;nan;96024.81;5073400;28;20209;-72
2022/10/21 06:49:28;;;;;;;18.45;14.80;;;;;;;11.66;nan;96026.84;5073682;28;20759;-72
2022/10/21 06:51:56;;;;;;;18.48;14.93;;;;;;;11.54;nan;96027.97;5073092;28;20238;-73
2022/10/21 06:54:23;;;;;;;23.17;14.55;;;;;;;11.43;nan;96027.38;5073647;28;20339;-72
2022/10/21 06:56:50;;;;;;;32.53;17.05;;;;;;;11.07;nan;96025.59;5072326;28;20221;-72
2022/10/21 06:59:16;;;;;;;37.28;19.02;;;;;;;11.19;nan;96025.34;5072706;28;20259;-73
2022/10/21 07:01:47;;;;;;;34.92;20.45;;;;;;;10.99;nan;96022.38;5074983;28;20501;-73
2022/10/21 07:04:14;;;;;;;39.28;21.42;;;;;;;10.93;nan;96019.94;5075719;28;20224;-74
2022/10/21 07:06:41;;;;;;;34.13;22.10;;;;;;;10.69;nan;96029.72;5073269;28;20223;-73
2022/10/21 07:09:10;;;;;;;47.00;24.95;;;;;;;10.94;nan;96019.06;5073866;28;20353;-73
2022/10/21 07:11:36;;;;;;;46.97;25.13;;;;;;;11.00;nan;96029.97;5076765;28;20701;-73
2022/10/21 07:14:04;;;;;;;31.67;17.63;;;;;;;10.85;nan;96026.03;5078256;28;20193;-74
2022/10/21 07:16:34;;;;;;;28.58;16.33;;;;;;;11.09;nan;96026.41;5075834;28;21106;-73
2022/10/21 07:19:01;;;;;;;47.78;24.88;;;;;;;11.47;nan;96025.59;5072017;28;20209;-73
2022/10/21 07:21:30;;;;;;;34.22;19.35;;;;;;;11.39;nan;96028.31;5073322;28;20722;-73
2022/10/21 07:23:57;;;;;;;28.98;14.90;;;;;;;11.05;nan;96019.72;5074051;28;20691;-73
2022/10/21 07:26:27;;;;;;;20.30;12.85;;;;;;;10.81;nan;96033.75;5073245;28;20561;-73
2022/10/21 07:28:56;;;;;;;17.95;11.98;;;;;;;10.69;nan;96031.41;5074125;28;20286;-72
2022/10/21 07:31:23;;;;;;;23.92;13.57;;;;;;;10.93;nan;96027.56;5073382;28;20326;-72
2022/10/21 07:33:50;;;;;;;16.42;12.50;;;;;;;11.15;nan;96021.19;5073977;28;20204;-73
2022/10/21 07:36:19;;;;;;;15.77;10.73;;;;;;;11.71;nan;96019.13;5076710;28;20261;-73
2022/10/21 07:38:47;;;;;;;15.85;11.57;;;;;;;12.55;nan;96017.94;5076076;28;20208;-72
2022/10/21 07:41:15;;;;;;;17.02;11.10;;;;;;;13.02;nan;96031.16;5075665;28;20219;-73
2022/10/21 07:43:45;;;;;;;19.65;11.23;;;;;;;13.69;nan;96013.88;5072511;28;20198;-73
2022/10/21 07:46:12;;;;;;;15.95;10.60;;;;;;;13.66;nan;96013.97;5073501;28;20209;-72
2022/10/21 07:48:39;;;;;;;17.15;11.65;;;;;;;14.39;nan;96009.06;5074946;28;20220;-73
2022/10/21 07:51:08;;;;;;;13.90;11.48;;;;;;;13.74;nan;96014.59;5071993;28;20250;-74
2022/10/21 07:53:35;;;;;;;19.52;12.57;;;;;;;13.47;nan;96006.88;5071840;28;20201;-72
2022/10/21 07:56:04;;;;;;;16.58;11.60;;;;;;;14.58;nan;96010.19;5072937;28;20193;-73
2022/10/21 07:58:31;;;;;;;16.77;10.95;;;;;;;16.50;nan;96015.72;5072793;28;20229;-72
2022/10/21 08:01:00;;;;;;;12.73;10.63;;;;;;;16.88;nan;96009.81;5072753;28;20220;-72
2022/10/21 08:03:29;;;;;;;17.95;10.63;;;;;;;17.49;nan;95999.41;5071511;28;20226;-71
2022/10/21 08:05:57;;;;;;;13.35;11.52;;;;;;;18.40;nan;95995.94;5074855;28;20299;-72
2022/10/21 08:08:25;;;;;;;15.32;10.60;;;;;;;20.88;nan;95993.59;5076600;28;21189;-72
2022/10/21 08:10:53;;;;;;;16.83;11.40;;;;;;;22.07;nan;95983.69;5075053;28;20229;-72
2022/10/21 08:13:20;;;;;;;15.40;11.50;;;;;;;21.85;nan;95979.00;5077857;28;20287;-72
2022/10/21 08:15:49;;;;;;;14.93;12.02;;;;;;;23.06;nan;95977.94;5077213;28;20206;-74
2022/10/21 08:18:17;;;;;;;17.73;12.75;;;;;;;20.74;nan;95980.69;5072504;28;21991;-74
2022/10/21 08:20:46;;;;;;;14.13;11.75;;;;;;;20.71;nan;95975.69;5074309;28;20217;-74
2022/10/21 08:23:16;;;;;;;15.75;12.13;;;;;;;21.61;nan;95978.81;5071733;28;20300;-73
2022/10/21 08:25:47;;;;;;;14.93;11.85;;;;;;;20.92;nan;95984.75;5074221;28;20254;-71
2022/10/21 08:28:15;;;;;;;13.80;11.85;;;;;;;20.56;nan;95981.75;5073095;28;20206;-73
2022/10/21 08:30:41;;;;;;;18.40;12.50;;;;;;;21.01;nan;95984.22;5073756;28;20623;-72
2022/10/21 08:33:08;;;;;;;18.38;12.82;;;;;;;20.10;nan;95984.34;5075523;28;20213;-73
2022/10/21 08:35:48;;;;;;;12.52;10.50;;;;;;;18.70;nan;95986.72;5073728;28;20217;-73
2022/10/21 08:38:15;;;;;;;15.45;11.10;;;;;;;17.82;nan;95986.72;5075828;28;20293;-73
2022/10/21 08:40:46;;;;;;;19.17;10.82;;;;;;;18.26;nan;95979.47;5071901;28;20230;-73
2022/10/21 08:43:19;;;;;;;15.15;12.38;;;;;;;18.34;nan;95967.03;5073199;28;20213;-72
2022/10/21 08:45:52;;;;;;;16.27;12.15;;;;;;;19.96;nan;95968.81;5078988;28;20234;-73
2022/10/21 08:48:25;;;;;;;16.10;11.50;;;;;;;20.31;nan;95975.38;5059987;28;20301;-72
2022/10/21 08:50:56;;;;;;;21.40;12.80;;;;;;;21.42;nan;95975.72;5075753;28;20719;-72
2022/10/21 08:53:27;;;;;;;16.38;11.38;;;;;;;18.83;nan;95982.59;5074936;28;20210;-72
2022/10/21 08:56:02;;;;;;;19.77;12.80;;;;;;;17.20;nan;95987.84;5077791;28;20209;-73
2022/10/21 08:58:29;;;;;;;12.57;11.32;;;;;;;19.36;nan;95971.22;5076207;28;20211;-73
2022/10/21 09:01:03;;;;;;;13.90;11.70;;;;;;;19.85;nan;95972.00;5075830;28;20206;-72
2022/10/21 09:03:41;;;;;;;12.38;10.80;;;;;;;19.35;nan;95960.09;5069724;28;20285;-73
2022/10/21 09:06:23;;;;;;;18.23;11.55;;;;;;;20.40;nan;95955.16;5069709;28;20202;-73
2022/10/21 09:09:06;;;;;;;15.05;12.02;;;;;;;20.07;nan;95947.56;5071980;28;20579;-73
2022/10/21 09:11:58;;;;;;;15.52;12.45;;;;;;;19.11;nan;95950.25;5070300;28;20304;-72
2022/10/21 09:14:56;;;;;;;15.35;11.07;;;;;;;18.76;nan;95934.91;5069796;28;20319;-73
2022/10/21 09:17:41;;;;;;;15.90;12.27;;;;;;;20.43;nan;95942.06;5070143;28;20205;-72
2022/10/21 09:20:17;;;;;;;15.40;11.27;;;;;;;20.87;nan;95935.09;5069887;28;20579;-72
2022/10/21 09:22:55;;;;;;;16.75;12.05;;;;;;;20.53;nan;95940.63;5070431;28;20201;-73
2022/10/21 09:25:27;;;;;;;19.90;13.20;;;;;;;19.09;nan;95934.88;5071034;28;20257;-73
2022/10/21 09:27:56;;;;;;;17.98;13.45;;;;;;;17.75;nan;95931.38;5074036;28;20599;-75
2022/10/21 09:30:26;;;;;;;16.40;12.45;;;;;;;17.85;nan;95924.03;5070337;28;21608;-72
2022/10/21 09:32:57;;;;;;;20.92;11.75;;;;;;;18.65;nan;95911.47;5073136;28;20206;-74
2022/10/21 09:35:34;;;;;;;17.75;13.48;;;;;;;17.82;nan;95924.19;5073196;28;20210;-74
2022/10/21 09:38:13;;;;;;;15.85;13.13;;;;;;;17.42;nan;95930.34;5070768;28;20255;-72
2022/10/21 09:40:40;;;;;;;19.65;12.25;;;;;;;17.73;nan;95919.50;5074978;28;20202;-73
2022/10/21 09:43:16;;;;;;;16.63;13.50;;;;;;;17.04;nan;95924.41;5070167;28;20206;-75
2022/10/21 09:45:45;;;;;;;21.17;12.82;;;;;;;16.33;nan;95927.44;5071542;28;20259;-72
2022/10/21 09:48:25;;;;;;;13.05;11.75;;;;;;;16.38;nan;95929.81;5071267;28;20213;-72
2022/10/21 09:50:55;;;;;;;16.85;12.48;;;;;;;15.70;nan;95930.94;5071153;28;20275;-71
2022/10/21 09:53:27;;;;;;;18.33;11.60;;;;;;;16.08;nan;95931.97;5069523;28;20202;-72
2022/10/21 09:56:04;;;;;;;17.38;13.13;;;;;;;16.72;nan;95931.81;5070641;28;20236;-73
2022/10/21 09:58:45;;;;;;;18.23;12.20;;;;;;;16.81;nan;95930.59;5069415;28;20204;-71
2022/10/21 10:01:16;;;;;;;18.08;12.02;;;;;;;17.10;nan;95929.25;5070767;28;20206;-71
2022/10/21 10:03:46;;;;;;;15.77;12.30;;;;;;;16.61;nan;95931.41;5044945;28;20227;-72
2022/10/21 10:06:13;;;;;;;18.95;13.30;;;;;;;16.41;nan;95918.59;5047425;28;20285;-71
2022/10/21 10:08:43;;;;;;;21.17;11.73;;;;;;;16.41;nan;95913.47;5047410;28;20225;-74
2022/10/21 10:11:17;;;;;;;15.18;12.80;;;;;;;16.25;nan;95913.28;5048301;28;20288;-72
2022/10/21 10:13:46;;;;;;;17.05;12.30;;;;;;;15.87;nan;95908.00;5045294;28;20596;-72
2022/10/21 10:16:22;;;;;;;16.13;13.13;;;;;;;15.92;nan;95908.66;5045283;28;20236;-70
2022/10/21 10:18:50;;;;;;;19.77;11.88;;;;;;;15.59;nan;95898.03;5048379;28;20206;-73
2022/10/21 10:21:18;;;;;;;16.85;11.98;;;;;;;15.94;nan;95903.47;5045209;28;20206;-71
2022/10/21 10:23:51;;;;;;;20.55;12.23;;;;;;;16.36;nan;95900.81;5047558;28;20212;-73
2022/10/21 10:26:26;;;;;;;14.82;11.63;;;;;;;16.45;nan;95904.75;5045790;28;20438;-72
2022/10/21 10:28:56;;;;;;;15.15;11.45;;;;;;;16.36;nan;95894.88;5045932;28;20372;-72
2022/10/21 10:31:30;;;;;;;13.15;11.45;;;;;;;16.51;nan;95899.34;5043387;28;20315;-72
2022/10/21 10:34:00;;;;;;;15.23;12.35;;;;;;;16.57;nan;95899.09;5045296;28;20221;-72
2022/10/21 10:36:31;;;;;;;16.77;12.55;;;;;;;16.67;nan;95893.50;5046300;28;20692;-72
2022/10/21 10:39:01;;;;;;;13.73;11.52;;;;;;;16.26;nan;95886.75;5043811;28;20628;-71
2022/10/21 10:41:35;;;;;;;14.07;11.50;;;;;;;16.26;nan;95879.88;5046847;28;20199;-72
2022/10/21 10:44:09;;;;;;;20.88;13.07;;;;;;;16.31;nan;95872.00;5045444;28;20767;-72
2022/10/21 10:46:37;;;;;;;13.13;10.93;;;;;;;16.19;nan;95862.25;5045787;28;20287;-72
2022/10/21 10:49:16;;;;;;;13.35;11.55;;;;;;;16.37;nan;95865.75;5045012;28;20221;-73
2022/10/21 10:51:46;;;;;;;17.45;11.85;;;;;;;16.16;nan;95857.25;5044534;28;20653;-72
2022/10/21 10:54:19;;;;;;;15.20;10.52;;;;;;;15.96;nan;95850.41;5031130;28;20613;-74
2022/10/21 10:56:52;;;;;;;14.50;11.32;;;;;;;15.95;nan;95856.44;5044881;28;20616;-73
2022/10/21 10:59:29;;;;;;;12.60;10.45;;;;;;;16.21;nan;95845.06;5042634;28;20603;-72
2022/10/21 11:02:27;;;;;;;15.18;10.00;;;;;;;16.08;nan;95847.34;5050469;28;20229;-72
2022/10/21 11:05:15;;;;;;;13.55;10.75;;;;;;;16.14;nan;95838.53;5072069;28;20268;-71
2022/10/21 11:07:46;;;;;;;15.15;10.43;;;;;;;16.10;nan;95845.50;5071783;28;20654;-71
2022/10/21 11:10:27;;;;;;;11.38;9.55;;;;;;;16.19;nan;95840.00;5071990;28;20229;-72
2022/10/21 11:12:54;;;;;;;13.50;9.98;;;;;;;16.43;nan;95832.13;5071312;28;20703;-72
2022/10/21 11:15:29;;;;;;;11.75;10.00;;;;;;;16.58;nan;95821.22;5071850;28;20233;-71
2022/10/21 11:18:01;;;;;;;9.07;8.18;;;;;;;16.59;nan;95825.41;5072123;28;21202;-72
2022/10/21 11:20:37;;;;;;;9.93;8.05;;;;;;;16.49;nan;95824.19;5072520;28;20263;-71
2022/10/21 11:23:28;;;;;;;11.07;8.20;;;;;;;16.34;nan;95823.09;5071076;28;20209;-72
2022/10/21 11:26:02;;;;;;;9.93;8.45;;;;;;;16.18;nan;95827.25;5072635;28;20209;-72
2022/10/21 11:28:33;;;;;;;10.52;9.27;;;;;;;16.14;nan;95821.41;5071449;28;20215;-72
2022/10/21 11:31:10;;;;;;;9.73;8.85;;;;;;;15.81;nan;95815.19;5071502;28;20230;-71
2022/10/21 11:33:47;;;;;;;8.55;7.80;;;;;;;16.00;nan;95818.63;5071286;28;20274;-72
2022/10/21 11:36:21;;;;;;;9.90;8.52;;;;;;;16.11;nan;95803.59;5071637;28;20205;-71
2022/10/21 11:39:08;;;;;;;9.77;8.27;;;;;;;16.37;nan;95799.88;5070788;28;20228;-72
2022/10/21 11:41:40;;;;;;;12.18;8.00;;;;;;;16.49;nan;95804.47;5070544;28;20212;-71
2022/10/21 11:44:18;;;;;;;9.63;8.63;;;;;;;16.45;nan;95802.94;5071834;28;20681;-72
2022/10/21 11:46:55;;;;;;;10.38;9.38;;;;;;;16.24;nan;95794.47;5072494;28;20228;-72
2022/10/21 11:49:36;;;;;;;10.88;8.93;;;;;;;16.27;nan;95789.22;5071619;28;20208;-71
2022/10/21 11:52:13;;;;;;;10.35;9.35;;;;;;;16.42;nan;95777.44;5072673;28;21455;-72
2022/10/21 11:55:03;;;;;;;13.15;10.00;;;;;;;16.48;nan;95778.88;5072304;28;20201;-72